Time;durP1;ratioP1;P1;durP2;ratioP2;P2;SDS_P1;SDS_P2;PMS_P1;PMS_P2;Temp;Humidity;BMP_temperature;BMP_pressure;BME280_temperature;BME280_humidity;BME280_pressure;Samples;Min_cycle;Max_cycle;Signal;HPM_P1;HPM_P2
2021/12/01 00:02:14;;;;;;;;;;;;;;;4.22;nan;99941.31;4981077;28;19924;-85
2021/12/01 00:04:39;;;;;;;;;;;;;;;4.18;nan;99939.88;5012319;28;20294;-87
2021/12/01 00:07:07;;;;;;;;;;;;;;;4.09;nan;99938.84;4992409;28;19963;-85
2021/12/01 00:09:32;;;;;;;;;;;;;;;4.15;nan;99943.59;4992875;28;19984;-86
2021/12/01 00:11:57;;;;;;;;;;;;;;;4.13;nan;99931.59;4980222;28;20333;-86
2021/12/01 00:14:23;;;;;;;;;;;;;;;4.08;nan;99931.97;4992651;28;19914;-86
2021/12/01 00:16:48;;;;;;;;;;;;;;;4.20;nan;99917.88;4992264;28;19973;-85
2021/12/01 00:19:13;;;;;;;;;;;;;;;4.17;nan;99933.81;5007512;28;19925;-87
2021/12/01 00:21:38;;;;;;;;;;;;;;;4.10;nan;99922.19;4978189;28;20005;-86
2021/12/01 00:24:03;;;;;;;;;;;;;;;4.08;nan;99928.53;4994834;28;19920;-84
2021/12/01 00:26:29;;;;;;;;;;;;;;;4.07;nan;99926.84;5012212;28;19918;-85
2021/12/01 00:28:54;;;;;;;;;;;;;;;4.09;nan;99924.94;4994980;28;19972;-86
2021/12/01 00:31:20;;;;;;;;;;;;;;;4.08;nan;99920.66;4977507;28;20363;-85
2021/12/01 00:33:45;;;;;;;;;;;;;;;4.08;nan;99897.13;4976830;28;20008;-86
2021/12/01 00:36:13;;;;;;;;;;;;;;;4.21;nan;99888.13;4995107;28;19956;-85
2021/12/01 00:38:39;;;;;;;;;;;;;;;4.14;nan;99888.75;4989679;28;19949;-87
2021/12/01 00:41:07;;;;;;;;;;;;;;;4.09;nan;99899.59;4977333;28;19960;-83
2021/12/01 00:43:34;;;;;;;;;;;;;;;4.13;nan;99895.78;4973910;28;19918;-84
2021/12/01 00:46:09;;;;;;;;;;;;;;;4.11;nan;99894.25;4977273;28;20402;-86
2021/12/01 00:48:34;;;;;;;;;;;;;;;4.09;nan;99896.97;4967698;28;20286;-84
2021/12/01 00:51:00;;;;;;;;;;;;;;;4.10;nan;99896.03;5000616;28;19918;-85
2021/12/01 00:53:25;;;;;;;;;;;;;;;4.16;nan;99900.75;5001315;28;20406;-85
2021/12/01 00:55:50;;;;;;;;;;;;;;;4.12;nan;99895.91;5005460;28;19963;-85
2021/12/01 00:58:16;;;;;;;;;;;;;;;4.14;nan;99886.13;4994744;28;19917;-84
2021/12/01 01:00:41;;;;;;;;;;;;;;;4.18;nan;99882.31;5004835;28;19933;-85
2021/12/01 01:03:08;;;;;;;;;;;;;;;4.23;nan;99877.53;4974505;28;19921;-86
2021/12/01 01:05:33;;;;;;;;;;;;;;;4.19;nan;99879.56;4990566;28;19988;-85
2021/12/01 01:07:58;;;;;;;;;;;;;;;4.19;nan;99883.97;4973748;28;20371;-86
2021/12/01 01:18:21;;;;;;;;;;;;;;;4.18;nan;99861.38;4991058;28;19979;-87
2021/12/01 01:20:47;;;;;;;;;;;;;;;4.12;nan;99862.69;4973986;28;19918;-87
2021/12/01 01:23:12;;;;;;;;;;;;;;;4.12;nan;99870.56;5007174;28;20226;-87
2021/12/01 01:25:37;;;;;;;;;;;;;;;4.17;nan;99862.31;4992359;28;19972;-87
2021/12/01 01:28:03;;;;;;;;;;;;;;;4.13;nan;99853.91;4985682;28;19925;-86
2021/12/01 01:30:28;;;;;;;;;;;;;;;4.15;nan;99864.25;4973640;28;19964;-85
2021/12/01 01:32:53;;;;;;;;;;;;;;;4.14;nan;99854.75;4991178;28;19917;-87
2021/12/01 01:35:19;;;;;;;;;;;;;;;4.05;nan;99856.31;4977699;28;19918;-85
2021/12/01 01:37:44;;;;;;;;;;;;;;;4.08;nan;99856.09;4992038;28;19922;-86
2021/12/01 01:40:10;;;;;;;;;;;;;;;4.10;nan;99850.72;4975705;28;19917;-86
2021/12/01 01:42:35;;;;;;;;;;;;;;;4.11;nan;99850.59;4991448;28;19914;-86
2021/12/01 01:45:00;;;;;;;;;;;;;;;4.09;nan;99849.88;5006849;28;20004;-87
2021/12/01 01:47:25;;;;;;;;;;;;;;;4.10;nan;99841.09;4974647;28;19918;-87
2021/12/01 01:49:57;;;;;;;;;;;;;;;4.14;nan;99841.66;4991222;28;19924;-86
2021/12/01 01:52:22;;;;;;;;;;;;;;;4.10;nan;99845.47;4975204;28;20577;-83
2021/12/01 01:54:47;;;;;;;;;;;;;;;4.14;nan;99842.47;5014860;28;20004;-83
2021/12/01 01:57:12;;;;;;;;;;;;;;;4.13;nan;99832.97;5008654;28;19972;-85
2021/12/01 01:59:37;;;;;;;;;;;;;;;4.14;nan;99833.81;4976507;28;20016;-85
2021/12/01 02:02:03;;;;;;;;;;;;;;;4.17;nan;99844.00;4992898;28;20287;-86
2021/12/01 02:04:33;;;;;;;;;;;;;;;4.17;nan;99842.25;4994738;28;19973;-87
2021/12/01 02:06:58;;;;;;;;;;;;;;;4.14;nan;99833.81;4976633;28;20399;-85
2021/12/01 02:09:24;;;;;;;;;;;;;;;4.15;nan;99835.47;4978196;28;19953;-84
2021/12/01 02:11:52;;;;;;;;;;;;;;;4.14;nan;99821.53;4975715;28;20375;-85
2021/12/01 02:14:17;;;;;;;;;;;;;;;4.11;nan;99823.59;4969084;28;19913;-86
2021/12/01 02:16:43;;;;;;;;;;;;;;;4.25;nan;99823.28;4989418;28;20024;-86
2021/12/01 02:19:08;;;;;;;;;;;;;;;4.14;nan;99816.31;4975065;28;20108;-84
2021/12/01 02:21:34;;;;;;;;;;;;;;;4.13;nan;99816.47;4990720;28;19918;-86
2021/12/01 02:24:08;;;;;;;;;;;;;;;4.17;nan;99803.00;4973982;28;19914;-86
2021/12/01 02:26:35;;;;;;;;;;;;;;;4.14;nan;99792.75;4990737;28;20407;-86
2021/12/01 02:29:03;;;;;;;;;;;;;;;4.15;nan;99794.44;4967140;28;19921;-86
2021/12/01 02:31:30;;;;;;;;;;;;;;;4.12;nan;99780.78;4990456;28;19922;-86
2021/12/01 02:33:56;;;;;;;;;;;;;;;4.12;nan;99772.94;4972291;28;19918;-86
2021/12/01 02:36:21;;;;;;;;;;;;;;;4.21;nan;99769.53;4972228;28;19978;-85
2021/12/01 02:38:47;;;;;;;;;;;;;;;4.12;nan;99765.06;4993171;28;19917;-86
2021/12/01 02:41:13;;;;;;;;;;;;;;;4.13;nan;99753.66;4997238;28;19918;-85
2021/12/01 02:43:40;;;;;;;;;;;;;;;4.18;nan;99754.94;4995423;28;19918;-87
2021/12/01 02:46:06;;;;;;;;;;;;;;;4.19;nan;99750.50;4974787;28;20347;-87
2021/12/01 02:48:33;;;;;;;;;;;;;;;4.15;nan;99736.06;4990228;28;20016;-86
2021/12/01 02:50:59;;;;;;;;;;;;;;;4.28;nan;99743.69;5008035;28;19925;-85
2021/12/01 02:53:24;;;;;;;;;;;;;;;4.24;nan;99730.88;5010103;28;19968;-86
2021/12/01 02:55:51;;;;;;;;;;;;;;;4.25;nan;99731.69;4996520;28;19969;-86
2021/12/01 02:58:18;;;;;;;;;;;;;;;4.21;nan;99718.03;5007273;28;20298;-86
2021/12/01 03:00:44;;;;;;;;;;;;;;;4.31;nan;99712.00;4977616;28;20201;-86
2021/12/01 03:03:10;;;;;;;;;;;;;;;4.29;nan;99716.53;4989322;28;19956;-85
2021/12/01 03:05:36;;;;;;;;;;;;;;;4.28;nan;99710.47;4992901;28;20294;-86
2021/12/01 03:08:01;;;;;;;;;;;;;;;4.28;nan;99700.00;4977064;28;20004;-87
2021/12/01 03:10:27;;;;;;;;;;;;;;;4.29;nan;99693.00;5009745;28;19945;-87
2021/12/01 03:12:52;;;;;;;;;;;;;;;4.26;nan;99681.81;5004345;28;19917;-85
2021/12/01 03:15:19;;;;;;;;;;;;;;;4.43;nan;99667.31;4999137;28;20000;-87
2021/12/01 03:17:44;;;;;;;;;;;;;;;4.32;nan;99663.97;4988820;28;19928;-85
2021/12/01 03:20:10;;;;;;;;;;;;;;;4.32;nan;99664.78;4990906;28;20295;-86
2021/12/01 03:22:35;;;;;;;;;;;;;;;4.32;nan;99658.72;4995210;28;19918;-87
2021/12/01 03:25:01;;;;;;;;;;;;;;;4.25;nan;99656.63;4977344;28;19929;-85
2021/12/01 03:27:26;;;;;;;;;;;;;;;4.26;nan;99658.28;4995845;28;20478;-85
2021/12/01 03:29:51;;;;;;;;;;;;;;;4.28;nan;99654.72;4996134;28;19961;-87
2021/12/01 03:32:17;;;;;;;;;;;;;;;4.25;nan;99646.16;4997407;28;19917;-86
2021/12/01 03:34:43;;;;;;;;;;;;;;;4.24;nan;99641.03;4988699;28;19945;-83
2021/12/01 03:37:08;;;;;;;;;;;;;;;4.31;nan;99641.34;4982070;28;19932;-85
2021/12/01 03:39:33;;;;;;;;;;;;;;;4.26;nan;99632.09;4979181;28;19917;-85
2021/12/01 03:41:59;;;;;;;;;;;;;;;4.31;nan;99629.09;5008074;28;19917;-86
2021/12/01 03:44:24;;;;;;;;;;;;;;;4.34;nan;99625.38;5009309;28;19925;-84
2021/12/01 03:46:49;;;;;;;;;;;;;;;4.30;nan;99611.75;4999421;28;19979;-86
2021/12/01 03:49:14;;;;;;;;;;;;;;;4.32;nan;99606.38;4993551;28;19922;-84
2021/12/01 03:51:40;;;;;;;;;;;;;;;4.40;nan;99598.66;4989705;28;20387;-85
2021/12/01 03:54:05;;;;;;;;;;;;;;;4.34;nan;99597.44;5015240;28;19967;-88
2021/12/01 03:56:33;;;;;;;;;;;;;;;4.43;nan;99596.63;4977293;28;19928;-86
2021/12/01 03:58:59;;;;;;;;;;;;;;;4.41;nan;99598.56;4990767;28;20003;-85
2021/12/01 04:01:24;;;;;;;;;;;;;;;4.48;nan;99585.72;4991541;28;19941;-84
2021/12/01 04:03:49;;;;;;;;;;;;;;;4.47;nan;99589.31;5001953;28;20300;-85
2021/12/01 04:06:14;;;;;;;;;;;;;;;4.49;nan;99583.94;4980418;28;19925;-86
2021/12/01 04:08:40;;;;;;;;;;;;;;;4.43;nan;99575.69;4993626;28;19921;-86
2021/12/01 04:11:06;;;;;;;;;;;;;;;4.47;nan;99577.03;4975530;28;19925;-86
2021/12/01 04:13:32;;;;;;;;;;;;;;;4.43;nan;99573.06;4978470;28;19918;-87
2021/12/01 04:15:58;;;;;;;;;;;;;;;4.47;nan;99568.38;4975498;28;19918;-86
2021/12/01 04:18:23;;;;;;;;;;;;;;;4.43;nan;99565.22;4995226;28;19952;-85
2021/12/01 04:20:48;;;;;;;;;;;;;;;4.41;nan;99568.91;5020129;28;19953;-85
2021/12/01 04:23:13;;;;;;;;;;;;;;;4.51;nan;99571.56;5010748;28;19957;-86
2021/12/01 04:25:39;;;;;;;;;;;;;;;4.42;nan;99562.72;4997464;28;19933;-86
2021/12/01 04:28:04;;;;;;;;;;;;;;;4.50;nan;99548.94;4985717;28;19917;-85
2021/12/01 04:30:29;;;;;;;;;;;;;;;4.47;nan;99536.97;4991458;28;19917;-86
2021/12/01 04:32:54;;;;;;;;;;;;;;;4.45;nan;99539.69;4984151;28;19921;-87
2021/12/01 04:35:23;;;;;;;;;;;;;;;4.53;nan;99531.19;4975898;28;20375;-83
2021/12/01 04:37:49;;;;;;;;;;;;;;;4.50;nan;99530.63;4978854;28;20449;-85
2021/12/01 04:40:15;;;;;;;;;;;;;;;4.52;nan;99528.69;4978373;28;19918;-85
2021/12/01 04:42:40;;;;;;;;;;;;;;;4.49;nan;99511.47;4975204;28;20664;-85
2021/12/01 04:45:14;;;;;;;;;;;;;;;4.52;nan;99505.13;4997215;28;19924;-88
2021/12/01 04:47:41;;;;;;;;;;;;;;;4.52;nan;99498.09;4997601;28;19917;-85
2021/12/01 04:50:07;;;;;;;;;;;;;;;4.56;nan;99493.44;4995428;28;19927;-83
2021/12/01 04:52:32;;;;;;;;;;;;;;;4.53;nan;99483.22;4977364;28;20383;-87
2021/12/01 04:54:57;;;;;;;;;;;;;;;4.57;nan;99474.13;4981535;28;19918;-83
2021/12/01 04:57:23;;;;;;;;;;;;;;;4.55;nan;99458.53;4994931;28;19981;-84
2021/12/01 04:59:49;;;;;;;;;;;;;;;4.53;nan;99459.66;4976556;28;19925;-84
2021/12/01 05:02:15;;;;;;;;;;;;;;;4.52;nan;99456.22;4975071;28;20020;-85
2021/12/01 05:04:41;;;;;;;;;;;;;;;4.55;nan;99455.94;4976547;28;20247;-85
2021/12/01 05:07:07;;;;;;;;;;;;;;;4.60;nan;99445.03;4975232;28;19972;-83
2021/12/01 05:09:32;;;;;;;;;;;;;;;4.60;nan;99424.09;4992797;28;19918;-84
2021/12/01 05:11:58;;;;;;;;;;;;;;;4.54;nan;99412.41;4981809;28;20414;-84
2021/12/01 05:14:25;;;;;;;;;;;;;;;4.60;nan;99419.72;4994189;28;19949;-85
2021/12/01 05:16:50;;;;;;;;;;;;;;;4.63;nan;99415.97;5005999;28;19933;-84
2021/12/01 05:19:16;;;;;;;;;;;;;;;4.70;nan;99411.84;4988494;28;20082;-83
2021/12/01 05:21:41;;;;;;;;;;;;;;;4.64;nan;99402.72;4988204;28;20383;-85
2021/12/01 05:24:06;;;;;;;;;;;;;;;4.78;nan;99408.50;4975429;28;19925;-84
2021/12/01 05:26:32;;;;;;;;;;;;;;;4.85;nan;99399.91;4983155;28;19925;-84
2021/12/01 05:28:57;;;;;;;;;;;;;;;4.85;nan;99386.00;4985079;28;19964;-86
2021/12/01 05:31:22;;;;;;;;;;;;;;;4.87;nan;99384.91;4995889;28;20395;-84
2021/12/01 05:33:48;;;;;;;;;;;;;;;5.02;nan;99376.56;4979201;28;19959;-86
2021/12/01 05:36:13;;;;;;;;;;;;;;;5.00;nan;99378.50;4997342;28;19964;-85
2021/12/01 05:38:39;;;;;;;;;;;;;;;4.97;nan;99371.75;4991268;28;19972;-83
2021/12/01 05:41:05;;;;;;;;;;;;;;;5.04;nan;99378.06;4981862;28;19983;-85
2021/12/01 05:43:30;;;;;;;;;;;;;;;5.02;nan;99371.31;4982412;28;20000;-84
2021/12/01 05:45:56;;;;;;;;;;;;;;;5.05;nan;99365.78;4976936;28;19968;-85
2021/12/01 05:48:21;;;;;;;;;;;;;;;5.12;nan;99374.72;4979922;28;19932;-85
2021/12/01 05:50:46;;;;;;;;;;;;;;;5.12;nan;99366.84;5003757;28;19924;-84
2021/12/01 05:53:13;;;;;;;;;;;;;;;5.17;nan;99361.19;5005241;28;20012;-85
2021/12/01 05:55:38;;;;;;;;;;;;;;;5.06;nan;99370.91;4993514;28;20042;-85
2021/12/01 05:58:04;;;;;;;;;;;;;;;5.10;nan;99358.31;4976128;28;20018;-85
2021/12/01 06:00:29;;;;;;;;;;;;;;;5.09;nan;99352.25;4980424;28;19917;-84
2021/12/01 06:02:54;;;;;;;;;;;;;;;5.10;nan;99355.69;4995509;28;19928;-87
2021/12/01 06:05:20;;;;;;;;;;;;;;;5.11;nan;99352.13;4974781;28;19918;-83
2021/12/01 06:07:46;;;;;;;;;;;;;;;5.10;nan;99353.06;4992042;28;20380;-86
2021/12/01 06:10:13;;;;;;;;;;;;;;;5.12;nan;99345.91;4975065;28;19918;-86
2021/12/01 06:12:40;;;;;;;;;;;;;;;5.13;nan;99342.31;4989204;28;19924;-86
2021/12/01 06:15:07;;;;;;;;;;;;;;;5.19;nan;99348.75;4983722;28;19928;-86
2021/12/01 06:17:33;;;;;;;;;;;;;;;5.23;nan;99345.72;4995659;28;20422;-86
2021/12/01 06:19:58;;;;;;;;;;;;;;;5.33;nan;99345.66;4996235;28;19918;-85
2021/12/01 06:22:23;;;;;;;;;;;;;;;5.31;nan;99348.44;4982545;28;19924;-85
2021/12/01 06:24:48;;;;;;;;;;;;;;;5.44;nan;99344.63;4980420;28;20272;-87
2021/12/01 06:27:14;;;;;;;;;;;;;;;5.54;nan;99340.13;5000786;28;19940;-85
2021/12/01 06:29:39;;;;;;;;;;;;;;;5.53;nan;99341.13;4988787;28;19917;-87
2021/12/01 06:32:04;;;;;;;;;;;;;;;5.58;nan;99328.38;4973388;28;19925;-86
2021/12/01 06:34:30;;;;;;;;;;;;;;;5.64;nan;99329.56;5006682;28;19918;-87
2021/12/01 06:36:56;;;;;;;;;;;;;;;5.61;nan;99312.34;4991179;28;19948;-86
2021/12/01 06:39:21;;;;;;;;;;;;;;;5.61;nan;99311.53;4977334;28;19925;-85
2021/12/01 06:41:46;;;;;;;;;;;;;;;5.57;nan;99310.16;4998683;28;19944;-85
2021/12/01 06:44:12;;;;;;;;;;;;;;;5.54;nan;99308.69;4999408;28;20467;-85
2021/12/01 06:46:37;;;;;;;;;;;;;;;5.58;nan;99303.94;4995184;28;20080;-86
2021/12/01 06:49:02;;;;;;;;;;;;;;;5.60;nan;99299.38;5008079;28;19918;-86
2021/12/01 06:51:27;;;;;;;;;;;;;;;5.55;nan;99286.72;4974477;28;19954;-86
2021/12/01 06:53:53;;;;;;;;;;;;;;;5.57;nan;99291.81;5008859;28;20000;-86
2021/12/01 06:56:19;;;;;;;;;;;;;;;5.53;nan;99278.19;4998163;28;19925;-87
2021/12/01 06:58:44;;;;;;;;;;;;;;;5.58;nan;99281.19;4975239;28;19917;-86
2021/12/01 07:01:10;;;;;;;;;;;;;;;5.51;nan;99267.84;4976832;28;19917;-86
2021/12/01 07:03:36;;;;;;;;;;;;;;;5.56;nan;99271.81;4989852;28;20370;-86
2021/12/01 07:06:01;;;;;;;;;;;;;;;5.52;nan;99260.81;4983853;28;19914;-86
2021/12/01 07:08:26;;;;;;;;;;;;;;;5.49;nan;99246.19;4991570;28;20011;-87
2021/12/01 07:10:52;;;;;;;;;;;;;;;5.57;nan;99257.72;4992735;28;19918;-85
2021/12/01 07:13:17;;;;;;;;;;;;;;;5.60;nan;99225.94;4976399;28;20279;-86
2021/12/01 07:15:42;;;;;;;;;;;;;;;5.58;nan;99212.16;5004726;28;19936;-86
2021/12/01 07:18:08;;;;;;;;;;;;;;;5.57;nan;99216.59;4993424;28;20356;-85
2021/12/01 07:20:33;;;;;;;;;;;;;;;5.63;nan;99204.69;4975065;28;20439;-86
2021/12/01 07:22:58;;;;;;;;;;;;;;;5.60;nan;99210.22;4990645;28;19918;-85
2021/12/01 07:25:23;;;;;;;;;;;;;;;5.63;nan;99196.81;5012589;28;20053;-85
2021/12/01 07:27:49;;;;;;;;;;;;;;;5.58;nan;99186.78;4987932;28;20145;-86
2021/12/01 07:30:14;;;;;;;;;;;;;;;5.75;nan;99174.63;5008939;28;19922;-85
2021/12/01 07:32:39;;;;;;;;;;;;;;;5.75;nan;99183.28;4979707;28;19933;-87
2021/12/01 07:35:05;;;;;;;;;;;;;;;5.82;nan;99182.69;4996841;28;19945;-88
2021/12/01 07:37:30;;;;;;;;;;;;;;;5.79;nan;99172.50;4996687;28;19925;-86
2021/12/01 07:39:55;;;;;;;;;;;;;;;5.78;nan;99168.22;4998110;28;19924;-88
2021/12/01 07:42:20;;;;;;;;;;;;;;;5.79;nan;99165.44;5015463;28;19989;-86
2021/12/01 07:44:46;;;;;;;;;;;;;;;5.81;nan;99149.56;5028435;28;19913;-86
2021/12/01 07:47:11;;;;;;;;;;;;;;;5.80;nan;99158.41;4997680;28;19921;-88
2021/12/01 07:49:37;;;;;;;;;;;;;;;5.86;nan;99142.03;4997712;28;19924;-87
2021/12/01 07:52:04;;;;;;;;;;;;;;;5.86;nan;99148.09;4980557;28;19924;-86
2021/12/01 07:54:29;;;;;;;;;;;;;;;5.82;nan;99135.47;4992099;28;19918;-86
2021/12/01 07:56:54;;;;;;;;;;;;;;;5.82;nan;99138.09;4996545;28;19928;-87
2021/12/01 07:59:20;;;;;;;;;;;;;;;5.82;nan;99138.91;4995280;28;20278;-86
2021/12/01 08:01:45;;;;;;;;;;;;;;;5.99;nan;99121.50;4977805;28;20297;-89
2021/12/01 08:04:11;;;;;;;;;;;;;;;5.90;nan;99127.63;4984936;28;19925;-87
2021/12/01 08:06:37;;;;;;;;;;;;;;;6.04;nan;99124.47;4993120;28;19920;-88
2021/12/01 08:09:03;;;;;;;;;;;;;;;5.94;nan;99129.00;4994457;28;19937;-88
2021/12/01 08:11:28;;;;;;;;;;;;;;;5.87;nan;99122.72;4993265;28;19964;-87
2021/12/01 08:13:53;;;;;;;;;;;;;;;5.99;nan;99120.69;4994392;28;19968;-87
2021/12/01 08:16:18;;;;;;;;;;;;;;;6.06;nan;99113.81;4992554;28;19917;-88
2021/12/01 08:18:44;;;;;;;;;;;;;;;5.97;nan;99112.13;4998752;28;20406;-86
2021/12/01 08:21:09;;;;;;;;;;;;;;;5.98;nan;99114.56;5029891;28;19918;-87
2021/12/01 08:23:34;;;;;;;;;;;;;;;6.02;nan;99108.03;5024737;28;19967;-87
2021/12/01 08:25:59;;;;;;;;;;;;;;;6.05;nan;99091.97;5003602;28;20358;-86
2021/12/01 08:28:24;;;;;;;;;;;;;;;5.92;nan;99107.31;5012458;28;19921;-86
2021/12/01 08:30:50;;;;;;;;;;;;;;;5.91;nan;99093.38;5013997;28;19914;-87
2021/12/01 08:33:15;;;;;;;;;;;;;;;6.00;nan;99090.81;5027332;28;19913;-87
2021/12/01 08:35:40;;;;;;;;;;;;;;;6.01;nan;99092.47;4994465;28;19920;-86
2021/12/01 08:38:05;;;;;;;;;;;;;;;5.95;nan;99088.66;4991708;28;20288;-88
2021/12/01 08:40:31;;;;;;;;;;;;;;;6.03;nan;99077.38;5004744;28;20310;-85
2021/12/01 08:42:56;;;;;;;;;;;;;;;6.00;nan;99065.41;5013258;28;19913;-87
2021/12/01 08:45:21;;;;;;;;;;;;;;;5.98;nan;99064.72;4995346;28;19969;-85
2021/12/01 08:47:48;;;;;;;;;;;;;;;6.04;nan;99058.84;4993309;28;19920;-87
2021/12/01 08:50:13;;;;;;;;;;;;;;;5.99;nan;99061.13;4992744;28;19992;-86
2021/12/01 08:52:39;;;;;;;;;;;;;;;6.05;nan;99044.75;4995606;28;20005;-86
2021/12/01 08:55:05;;;;;;;;;;;;;;;6.08;nan;99048.88;4994295;28;19918;-87
2021/12/01 08:57:30;;;;;;;;;;;;;;;6.03;nan;99040.63;4995642;28;19957;-85
2021/12/01 08:59:56;;;;;;;;;;;;;;;6.07;nan;99036.72;5000509;28;19998;-85
2021/12/01 09:02:21;;;;;;;;;;;;;;;6.10;nan;99025.91;4996446;28;19913;-86
2021/12/01 09:04:50;;;;;;;;;;;;;;;6.13;nan;99023.78;4978836;28;20391;-87
2021/12/01 09:07:15;;;;;;;;;;;;;;;6.08;nan;99025.25;4993064;28;20375;-85
2021/12/01 09:09:40;;;;;;;;;;;;;;;6.07;nan;99021.78;4976345;28;19921;-86
2021/12/01 09:12:06;;;;;;;;;;;;;;;6.07;nan;99019.16;4993035;28;20016;-83
2021/12/01 09:14:31;;;;;;;;;;;;;;;6.09;nan;99017.22;4992842;28;19984;-87
2021/12/01 09:16:56;;;;;;;;;;;;;;;6.12;nan;99011.63;4993420;28;19971;-86
2021/12/01 09:19:22;;;;;;;;;;;;;;;6.07;nan;99010.47;4981096;28;20012;-85
2021/12/01 09:21:48;;;;;;;;;;;;;;;6.09;nan;99005.91;4977386;28;19925;-87
2021/12/01 09:24:14;;;;;;;;;;;;;;;6.14;nan;98980.00;4990866;28;20291;-88
2021/12/01 09:26:39;;;;;;;;;;;;;;;6.19;nan;98982.13;4987061;28;19925;-86
2021/12/01 09:29:04;;;;;;;;;;;;;;;6.30;nan;98984.47;4993046;28;20605;-87
2021/12/01 09:31:30;;;;;;;;;;;;;;;6.30;nan;98989.72;4992704;28;19918;-86
2021/12/01 09:33:56;;;;;;;;;;;;;;;6.23;nan;98980.84;4976437;28;19967;-85
2021/12/01 09:36:21;;;;;;;;;;;;;;;6.31;nan;98978.22;4993078;28;20394;-86
2021/12/01 09:38:46;;;;;;;;;;;;;;;6.37;nan;98967.06;4994801;28;19914;-85
2021/12/01 09:41:11;;;;;;;;;;;;;;;6.37;nan;98964.44;5013861;28;19924;-88
2021/12/01 09:43:37;;;;;;;;;;;;;;;6.42;nan;98959.53;5020913;28;20318;-87
2021/12/01 09:46:04;;;;;;;;;;;;;;;6.41;nan;98952.63;5007712;28;20011;-88
2021/12/01 09:48:31;;;;;;;;;;;;;;;6.49;nan;98962.31;4980023;28;19918;-86
2021/12/01 09:50:56;;;;;;;;;;;;;;;6.47;nan;98959.03;4994205;28;19921;-86
2021/12/01 09:53:21;;;;;;;;;;;;;;;6.56;nan;98950.19;4983534;28;20326;-85
2021/12/01 09:55:47;;;;;;;;;;;;;;;6.62;nan;98951.31;4991653;28;19914;-87
2021/12/01 09:58:16;;;;;;;;;;;;;;;6.72;nan;98950.16;4994608;28;20358;-86
2021/12/01 10:00:42;;;;;;;;;;;;;;;6.58;nan;98940.31;4999698;28;19922;-87
2021/12/01 10:03:08;;;;;;;;;;;;;;;6.69;nan;98931.28;4994157;28;19955;-84
2021/12/01 10:05:46;;;;;;;;;;;;;;;6.75;nan;98933.25;4993622;28;19913;-86
2021/12/01 10:08:21;;;;;;;;;;;;;;;6.82;nan;98921.09;4994303;28;20395;-87
2021/12/01 10:10:47;;;;;;;;;;;;;;;6.86;nan;98919.75;4991877;28;20323;-84
2021/12/01 10:13:12;;;;;;;;;;;;;;;6.89;nan;98908.94;4991813;28;19917;-86
2021/12/01 10:15:38;;;;;;;;;;;;;;;6.95;nan;98892.47;4973601;28;19933;-86
2021/12/01 10:18:10;;;;;;;;;;;;;;;7.05;nan;98889.66;4989881;28;20385;-87
2021/12/01 10:20:35;;;;;;;;;;;;;;;7.14;nan;98875.50;4991373;28;20390;-87
2021/12/01 10:23:06;;;;;;;;;;;;;;;7.18;nan;98857.59;4983399;28;19914;-87
2021/12/01 10:25:31;;;;;;;;;;;;;;;7.12;nan;98863.50;4991323;28;20367;-86
2021/12/01 10:27:56;;;;;;;;;;;;;;;7.26;nan;98865.41;5010543;28;19967;-87
2021/12/01 10:30:34;;;;;;;;;;;;;;;7.38;nan;98852.72;4990783;28;19928;-87
2021/12/01 10:33:10;;;;;;;;;;;;;;;7.44;nan;98850.22;4980220;28;19918;-86
2021/12/01 10:35:36;;;;;;;;;;;;;;;7.41;nan;98837.41;5010645;28;19972;-86
2021/12/01 10:38:02;;;;;;;;;;;;;;;7.47;nan;98830.63;5011426;28;19917;-86
2021/12/01 10:40:28;;;;;;;;;;;;;;;7.53;nan;98818.59;4986560;28;19918;-86
2021/12/01 10:42:53;;;;;;;;;;;;;;;7.52;nan;98822.22;4994419;28;19913;-86
2021/12/01 10:45:20;;;;;;;;;;;;;;;7.53;nan;98802.81;5012430;28;20314;-86
2021/12/01 10:47:45;;;;;;;;;;;;;;;7.65;nan;98804.88;4995230;28;19953;-86
2021/12/01 10:50:12;;;;;;;;;;;;;;;7.70;nan;98790.38;4993740;28;19914;-85
2021/12/01 10:52:47;;;;;;;;;;;;;;;7.71;nan;98781.50;4975880;28;19977;-86
2021/12/01 10:55:14;;;;;;;;;;;;;;;7.73;nan;98779.50;4974219;28;19914;-88
2021/12/01 10:57:59;;;;;;;;;;;;;;;7.75;nan;98778.34;4973151;28;20343;-87
2021/12/01 11:00:26;;;;;;;;;;;;;;;7.75;nan;98780.97;4971756;28;20344;-87
2021/12/01 11:02:53;;;;;;;;;;;;;;;7.73;nan;98767.16;4957782;28;20368;-85
2021/12/01 11:05:32;;;;;;;;;;;;;;;7.80;nan;98768.09;4975321;28;19914;-86
2021/12/01 11:08:09;;;;;;;;;;;;;;;7.77;nan;98759.72;4975159;28;19917;-86
2021/12/01 11:10:35;;;;;;;;;;;;;;;7.83;nan;98751.94;4973559;28;19960;-86
2021/12/01 11:13:02;;;;;;;;;;;;;;;7.78;nan;98753.47;4957585;28;19913;-86
2021/12/01 11:15:34;;;;;;;;;;;;;;;7.81;nan;98753.13;4957585;28;20379;-87
2021/12/01 11:18:00;;;;;;;;;;;;;;;7.76;nan;98753.66;4958603;28;19925;-87
2021/12/01 11:20:35;;;;;;;;;;;;;;;7.83;nan;98746.69;4993693;28;20205;-87
2021/12/01 11:23:08;;;;;;;;;;;;;;;7.73;nan;98748.75;5014969;28;20294;-87
2021/12/01 11:25:36;;;;;;;;;;;;;;;7.83;nan;98730.91;5015185;28;20294;-86
2021/12/01 11:28:01;;;;;;;;;;;;;;;7.70;nan;98724.59;4997652;28;19913;-85
2021/12/01 11:30:27;;;;;;;;;;;;;;;7.76;nan;98721.28;5030505;28;20514;-85
2021/12/01 11:32:52;;;;;;;;;;;;;;;7.65;nan;98715.44;5015731;28;19920;-86
2021/12/01 11:35:17;;;;;;;;;;;;;;;7.68;nan;98713.47;5015366;28;19914;-85
2021/12/01 11:37:42;;;;;;;;;;;;;;;7.73;nan;98713.75;5014374;28;20306;-86
2021/12/01 11:40:08;;;;;;;;;;;;;;;7.59;nan;98705.63;4996184;28;19919;-84
2021/12/01 11:42:33;;;;;;;;;;;;;;;7.72;nan;98701.56;5006616;28;19913;-86
2021/12/01 11:44:59;;;;;;;;;;;;;;;7.62;nan;98702.63;5016700;28;19913;-87
2021/12/01 11:47:25;;;;;;;;;;;;;;;7.67;nan;98691.56;5014141;28;19928;-87
2021/12/01 11:49:51;;;;;;;;;;;;;;;7.72;nan;98685.78;4991961;28;19925;-88
2021/12/01 11:52:17;;;;;;;;;;;;;;;7.70;nan;98683.34;4995280;28;19914;-86
2021/12/01 11:54:44;;;;;;;;;;;;;;;7.72;nan;98675.25;4998545;28;19949;-87
2021/12/01 11:57:09;;;;;;;;;;;;;;;7.70;nan;98670.19;4986056;28;20055;-85
2021/12/01 11:59:37;;;;;;;;;;;;;;;7.70;nan;98666.72;4983909;28;19944;-87
2021/12/01 12:02:05;;;;;;;;;;;;;;;7.75;nan;98665.22;4996142;28;20449;-87
2021/12/01 12:04:37;;;;;;;;;;;;;;;7.73;nan;98659.31;5010554;28;19924;-87
2021/12/01 12:07:25;;;;;;;;;;;;;;;7.71;nan;98655.22;5014802;28;19914;-87
2021/12/01 12:10:05;;;;;;;;;;;;;;;7.87;nan;98647.97;5000640;28;19928;-85
2021/12/01 12:12:45;;;;;;;;;;;;;;;7.80;nan;98641.78;4992919;28;19980;-86
2021/12/01 12:15:11;;;;;;;;;;;;;;;7.87;nan;98631.38;5009194;28;19917;-85
2021/12/01 12:17:36;;;;;;;;;;;;;;;7.78;nan;98630.63;4976473;28;19928;-86
2021/12/01 12:23:02;;;;;;;;;;;;;;;7.89;nan;98634.66;4993972;28;20303;-87
2021/12/01 12:25:36;;;;;;;;;;;;;;;7.90;nan;98614.41;4999012;28;19980;-86
2021/12/01 12:28:19;;;;;;;;;;;;;;;7.84;nan;98618.56;4976281;28;19917;-86
2021/12/01 12:30:44;;;;;;;;;;;;;;;7.95;nan;98586.53;4994111;28;19914;-86
2021/12/01 12:33:26;;;;;;;;;;;;;;;7.93;nan;98598.25;5009187;28;19917;-86
2021/12/01 12:35:57;;;;;;;;;;;;;;;7.93;nan;98601.69;4998160;28;19964;-86
2021/12/01 12:38:23;;;;;;;;;;;;;;;7.92;nan;98594.81;5002141;28;19980;-86
2021/12/01 12:40:58;;;;;;;;;;;;;;;8.00;nan;98584.16;5000321;28;20004;-86
2021/12/01 12:43:24;;;;;;;;;;;;;;;7.99;nan;98579.91;4993368;28;19925;-86
2021/12/01 12:46:06;;;;;;;;;;;;;;;8.07;nan;98581.63;5008824;28;19930;-87
2021/12/01 12:48:43;;;;;;;;;;;;;;;8.11;nan;98590.78;4995274;28;20347;-87
2021/12/01 12:51:21;;;;;;;;;;;;;;;8.06;nan;98577.38;4992594;28;19925;-87
2021/12/01 12:54:02;;;;;;;;;;;;;;;8.07;nan;98577.16;5007271;28;20398;-87
2021/12/01 12:56:30;;;;;;;;;;;;;;;8.10;nan;98583.88;4997647;28;19976;-86
2021/12/01 12:59:14;;;;;;;;;;;;;;;8.06;nan;98565.03;4994012;28;19921;-86
2021/12/01 13:01:39;;;;;;;;;;;;;;;8.02;nan;98570.84;5004345;28;19918;-88
2021/12/01 13:04:04;;;;;;;;;;;;;;;8.09;nan;98561.19;4998198;28;19922;-87
2021/12/01 13:06:31;;;;;;;;;;;;;;;8.03;nan;98557.50;4992334;28;19957;-86
2021/12/01 13:09:13;;;;;;;;;;;;;;;7.99;nan;98542.25;4983695;28;19980;-86
2021/12/01 13:11:39;;;;;;;;;;;;;;;8.10;nan;98549.66;5009636;28;20279;-85
2021/12/01 13:14:04;;;;;;;;;;;;;;;8.09;nan;98534.88;4992404;28;19925;-85
2021/12/01 13:16:29;;;;;;;;;;;;;;;8.11;nan;98537.34;4999263;28;20008;-85
2021/12/01 13:19:01;;;;;;;;;;;;;;;8.14;nan;98540.41;4980879;28;20019;-85
2021/12/01 13:21:26;;;;;;;;;;;;;;;8.12;nan;98531.06;4974361;28;20359;-85
2021/12/01 13:23:52;;;;;;;;;;;;;;;8.12;nan;98516.06;4992710;28;19920;-86
2021/12/01 13:26:23;;;;;;;;;;;;;;;8.08;nan;98520.91;5013240;28;19913;-86